createdAt,value
2022-10-23T00:00:12.742Z,57.70
2022-10-23T00:02:42.110Z,52.63
2022-10-23T00:05:11.450Z,44.70
2022-10-23T00:07:40.276Z,36.40
2022-10-23T00:10:10.843Z,35.83
2022-10-23T00:12:41.552Z,33.70
2022-10-23T00:15:11.246Z,29.50
2022-10-23T00:17:40.501Z,36.00
2022-10-23T00:20:11.181Z,29.67
2022-10-23T00:22:40.414Z,26.30
2022-10-23T00:25:10.938Z,26.07
2022-10-23T00:27:41.447Z,26.43
2022-10-23T00:30:11.531Z,26.80
2022-10-23T00:32:40.470Z,25.70
2022-10-23T00:35:10.037Z,22.37
2022-10-23T00:37:38.902Z,22.83
2022-10-23T00:40:09.328Z,19.63
2022-10-23T00:42:38.233Z,21.13
2022-10-23T00:45:22.990Z,21.30
2022-10-23T00:47:52.157Z,20.57
2022-10-23T00:50:25.295Z,25.30
2022-10-23T00:52:56.193Z,20.97
2022-10-23T00:55:26.880Z,29.60
2022-10-23T00:57:56.068Z,23.23
2022-10-23T01:00:28.662Z,28.57
2022-10-23T01:02:58.717Z,26.53
2022-10-23T01:05:33.417Z,23.60
2022-10-23T01:08:07.675Z,24.07
2022-10-23T01:10:40.307Z,18.63
2022-10-23T01:13:16.952Z,17.40
2022-10-23T01:15:54.870Z,21.97
2022-10-23T01:18:33.358Z,20.13
2022-10-23T01:21:07.106Z,17.67
2022-10-23T01:24:13.701Z,16.57
2022-10-23T01:26:58.768Z,17.27
2022-10-23T01:29:35.282Z,15.80
2022-10-23T01:32:08.521Z,18.87
2022-10-23T01:34:46.245Z,14.17
2022-10-23T01:37:20.814Z,16.53
2022-10-23T01:39:54.464Z,14.77
2022-10-23T01:42:28.465Z,11.90
2022-10-23T01:45:04.796Z,16.77
2022-10-23T01:47:45.622Z,13.50
2022-10-23T01:50:18.762Z,13.43
2022-10-23T01:52:50.122Z,15.17
2022-10-23T01:55:19.614Z,11.47
2022-10-23T01:57:50.385Z,13.13
2022-10-23T02:00:21.927Z,10.17
2022-10-23T02:03:10.278Z,11.97
2022-10-23T02:05:39.645Z,11.37
2022-10-23T02:08:08.849Z,15.03
2022-10-23T02:10:44.784Z,14.63
2022-10-23T02:13:21.827Z,15.60
2022-10-23T02:16:00.183Z,14.90
2022-10-23T02:18:36.300Z,17.90
2022-10-23T02:21:30.286Z,16.43
2022-10-23T02:24:04.568Z,14.27
2022-10-23T02:26:39.725Z,16.93
2022-10-23T02:29:14.191Z,14.80
2022-10-23T02:31:48.134Z,15.17
2022-10-23T02:34:20.474Z,12.67
2022-10-23T02:36:49.518Z,16.60
2022-10-23T02:39:22.696Z,12.20
2022-10-23T02:41:59.407Z,11.10
2022-10-23T02:44:40.452Z,12.73
2022-10-23T02:47:22.712Z,13.57
2022-10-23T02:50:04.841Z,11.53
2022-10-23T02:52:39.804Z,14.50
2022-10-23T02:55:18.351Z,11.77
2022-10-23T02:57:56.148Z,13.07
2022-10-23T03:00:25.670Z,17.63
2022-10-23T03:02:59.501Z,18.63
2022-10-23T03:05:35.984Z,13.67
2022-10-23T03:08:05.721Z,16.27
2022-10-23T03:10:34.466Z,17.43
2022-10-23T03:13:03.520Z,13.60
2022-10-23T03:15:40.261Z,13.33
2022-10-23T03:18:14.386Z,21.60
2022-10-23T03:20:47.751Z,36.70
2022-10-23T03:23:17.250Z,49.73
2022-10-23T03:25:46.100Z,68.50
2022-10-23T03:28:27.702Z,42.50
2022-10-23T03:30:56.718Z,23.47
2022-10-23T03:33:27.084Z,23.63
2022-10-23T03:35:56.100Z,23.47
2022-10-23T03:38:26.097Z,16.03
2022-10-23T03:40:54.881Z,17.10
2022-10-23T03:43:23.679Z,14.73
2022-10-23T03:45:52.554Z,15.73
2022-10-23T03:48:21.428Z,12.13
2022-10-23T03:50:51.613Z,14.10
2022-10-23T03:53:20.581Z,12.13
2022-10-23T03:55:49.470Z,10.73
2022-10-23T03:58:19.327Z,17.07
2022-10-23T04:00:48.429Z,16.10
2022-10-23T04:03:17.268Z,17.23
2022-10-23T04:05:46.067Z,16.93
2022-10-23T04:08:19.294Z,19.23
2022-10-23T04:10:51.719Z,20.23
2022-10-23T04:13:24.012Z,29.80
2022-10-23T04:15:54.197Z,26.73
2022-10-23T04:18:23.212Z,23.77
2022-10-23T04:20:52.562Z,28.57
2022-10-23T04:23:22.894Z,26.10
2022-10-23T04:25:51.883Z,36.13
2022-10-23T04:28:25.210Z,47.23
2022-10-23T04:30:54.011Z,58.93
2022-10-23T04:33:22.925Z,42.57
2022-10-23T04:35:53.286Z,38.87
2022-10-23T04:38:23.557Z,39.43
2022-10-23T04:40:52.575Z,46.53
2022-10-23T04:43:23.761Z,39.67
2022-10-23T04:45:52.558Z,28.40
2022-10-23T04:48:25.566Z,21.23
2022-10-23T04:51:15.932Z,20.63
2022-10-23T04:54:09.767Z,15.80
2022-10-23T04:56:49.133Z,20.97
2022-10-23T04:59:20.687Z,24.47
2022-10-23T05:01:50.834Z,25.20
2022-10-23T05:04:20.624Z,19.43
2022-10-23T05:07:15.212Z,25.53
2022-10-23T05:09:52.377Z,22.73
2022-10-23T05:12:41.137Z,19.83
2022-10-23T05:15:28.470Z,20.00
2022-10-23T05:18:01.659Z,23.67
2022-10-23T05:20:34.944Z,24.20
2022-10-23T05:23:04.278Z,22.97
2022-10-23T05:25:34.552Z,25.47
2022-10-23T05:28:13.942Z,19.33
2022-10-23T05:30:44.193Z,14.40
2022-10-23T05:33:13.374Z,15.30
2022-10-23T05:35:45.787Z,16.43
2022-10-23T05:38:18.008Z,18.40
2022-10-23T05:40:48.834Z,18.17
2022-10-23T05:43:21.273Z,22.23
2022-10-23T05:45:53.864Z,14.87
2022-10-23T05:48:35.689Z,13.97
2022-10-23T05:51:23.563Z,16.90
2022-10-23T05:54:30.502Z,14.87
2022-10-23T05:57:23.705Z,14.67
2022-10-23T05:59:54.374Z,15.27
2022-10-23T06:02:42.308Z,12.83
2022-10-23T06:05:24.535Z,20.87
2022-10-23T06:08:28.534Z,18.53
2022-10-23T06:10:57.575Z,16.33
2022-10-23T06:13:27.745Z,20.03
2022-10-23T06:15:56.812Z,12.70
2022-10-23T06:18:27.419Z,17.23
2022-10-23T06:21:08.041Z,16.27
2022-10-23T06:23:38.991Z,23.33
2022-10-23T06:26:09.543Z,23.87
2022-10-23T06:28:54.217Z,19.03
2022-10-23T06:31:26.975Z,23.97
2022-10-23T06:33:59.296Z,22.67
2022-10-23T06:36:29.510Z,24.10
2022-10-23T06:39:22.436Z,21.30
2022-10-23T06:42:11.560Z,26.80
2022-10-23T06:45:03.412Z,22.80
2022-10-23T06:47:39.488Z,28.77
2022-10-23T06:50:31.022Z,26.17
2022-10-23T06:53:02.117Z,20.30
2022-10-23T06:55:31.835Z,16.03
2022-10-23T06:58:00.741Z,11.97
2022-10-23T07:00:31.807Z,32.83
2022-10-23T07:03:01.602Z,18.97
2022-10-23T07:05:30.860Z,18.17
2022-10-23T07:07:59.905Z,18.53
2022-10-23T07:10:35.625Z,16.77
2022-10-23T07:13:04.645Z,17.17
2022-10-23T07:15:41.138Z,18.00
2022-10-23T07:18:17.082Z,10.87
2022-10-23T07:21:09.001Z,13.70
2022-10-23T07:23:39.906Z,13.63
2022-10-23T07:26:10.730Z,9.70
2022-10-23T07:28:39.603Z,10.07
2022-10-23T07:31:10.873Z,12.67
2022-10-23T07:33:59.597Z,13.93
2022-10-23T07:36:47.094Z,8.20
2022-10-23T07:39:15.970Z,13.57
2022-10-23T07:41:51.851Z,12.70
2022-10-23T07:44:23.089Z,12.03
2022-10-23T07:46:56.094Z,13.83
2022-10-23T07:49:25.088Z,16.23
2022-10-23T07:51:54.166Z,27.17
2022-10-23T07:54:36.157Z,16.30
2022-10-23T07:57:22.216Z,13.90
2022-10-23T07:59:57.583Z,10.50
2022-10-23T08:02:28.478Z,12.17
2022-10-23T08:04:57.640Z,10.07
2022-10-23T08:07:32.520Z,14.37
2022-10-23T08:10:02.363Z,13.00
2022-10-23T08:12:31.975Z,11.77
2022-10-23T08:15:01.003Z,16.53
2022-10-23T08:17:39.909Z,11.60
2022-10-23T08:20:29.173Z,15.07
2022-10-23T08:22:59.104Z,16.03
2022-10-23T08:25:28.694Z,11.43
2022-10-23T08:27:57.584Z,27.87
2022-10-23T08:30:26.513Z,18.63
2022-10-23T08:32:56.874Z,15.90
2022-10-23T08:35:25.826Z,15.57
2022-10-23T08:37:54.801Z,20.27
2022-10-23T08:40:26.705Z,23.27
2022-10-23T08:43:20.619Z,21.40
2022-10-23T08:46:09.611Z,23.77
2022-10-23T08:49:18.914Z,17.17
2022-10-23T08:52:00.485Z,22.30
2022-10-23T08:54:40.781Z,12.63
2022-10-23T08:57:14.988Z,22.20
2022-10-23T08:59:48.850Z,14.73
2022-10-23T09:02:23.611Z,14.13
2022-10-23T09:04:56.902Z,12.30
2022-10-23T09:07:37.565Z,19.17
2022-10-23T09:10:26.435Z,13.83
2022-10-23T09:13:36.189Z,13.57
2022-10-23T09:16:17.206Z,14.93
2022-10-23T09:18:49.971Z,22.17
2022-10-23T09:21:21.031Z,18.53
2022-10-23T09:23:50.133Z,15.37
2022-10-23T09:26:20.338Z,15.53
2022-10-23T09:28:51.700Z,12.53
2022-10-23T09:31:21.088Z,9.23
2022-10-23T09:33:57.044Z,10.17
2022-10-23T09:36:29.556Z,11.90
2022-10-23T09:39:00.466Z,10.33
2022-10-23T09:41:31.883Z,9.87
2022-10-23T09:44:16.622Z,8.80
2022-10-23T09:46:48.795Z,11.93
2022-10-23T09:49:20.251Z,16.23
2022-10-23T09:52:03.049Z,9.33
2022-10-23T09:54:34.810Z,8.20
2022-10-23T09:57:14.759Z,9.97
2022-10-23T10:00:06.905Z,9.83
2022-10-23T10:02:41.792Z,13.37
2022-10-23T10:05:25.441Z,9.93
2022-10-23T10:08:02.617Z,7.27
2022-10-23T10:10:39.140Z,11.53
2022-10-23T10:13:23.127Z,8.77
2022-10-23T10:15:57.148Z,15.33
2022-10-23T10:18:36.775Z,8.10
2022-10-23T10:21:15.629Z,9.20
2022-10-23T10:23:51.955Z,12.57
2022-10-23T10:26:36.139Z,12.97
2022-10-23T10:29:19.279Z,9.13
2022-10-23T10:31:59.675Z,10.83
2022-10-23T10:34:34.329Z,21.83
2022-10-23T10:37:09.094Z,11.43
2022-10-23T10:39:48.752Z,9.53
2022-10-23T10:42:38.505Z,8.63
2022-10-23T10:45:29.674Z,9.53
2022-10-23T10:48:15.689Z,11.40
2022-10-23T10:51:07.287Z,13.20
2022-10-23T10:54:10.461Z,9.17
2022-10-23T10:56:45.184Z,9.47
2022-10-23T10:59:22.367Z,10.30
2022-10-23T11:01:57.628Z,13.50
2022-10-23T11:04:35.433Z,12.67
2022-10-23T11:07:15.587Z,11.33
2022-10-23T11:09:45.324Z,16.80
2022-10-23T11:12:21.400Z,17.97
2022-10-23T11:14:51.764Z,18.30
2022-10-23T11:17:26.805Z,17.17
2022-10-23T11:20:03.283Z,23.90
2022-10-23T11:22:38.057Z,11.63
2022-10-23T11:25:25.692Z,13.40
2022-10-23T11:28:10.753Z,16.10
2022-10-23T11:30:56.310Z,19.87
2022-10-23T11:34:06.885Z,10.73
2022-10-23T11:36:46.513Z,15.73
2022-10-23T11:39:23.801Z,19.80
2022-10-23T11:41:56.132Z,10.30
2022-10-23T11:44:41.038Z,11.60
2022-10-23T11:47:29.131Z,12.77
2022-10-23T11:50:17.603Z,13.67
2022-10-23T11:53:15.436Z,18.10
2022-10-23T11:56:03.017Z,19.27
2022-10-23T11:58:44.323Z,36.80
2022-10-23T12:01:37.471Z,29.00
2022-10-23T12:04:25.118Z,22.53
2022-10-23T12:06:57.589Z,13.97
2022-10-23T12:09:31.883Z,13.10
2022-10-23T12:12:18.472Z,17.87
2022-10-23T12:14:49.611Z,16.10
2022-10-23T12:17:36.069Z,17.90
2022-10-23T12:20:24.724Z,14.17
2022-10-23T12:23:24.951Z,16.60
2022-10-23T12:26:09.132Z,16.10
2022-10-23T12:28:44.812Z,15.10
2022-10-23T12:31:29.102Z,10.80
2022-10-23T12:34:07.394Z,11.70
2022-10-23T12:36:49.961Z,16.47
2022-10-23T12:39:29.612Z,17.83
2022-10-23T12:42:00.157Z,14.20
2022-10-23T12:44:30.621Z,13.30
2022-10-23T12:47:02.057Z,10.70
2022-10-23T12:49:35.661Z,11.47
2022-10-23T12:52:06.834Z,30.40
2022-10-23T12:54:41.547Z,27.70
2022-10-23T12:57:22.502Z,9.77
2022-10-23T12:59:54.485Z,7.83
2022-10-23T13:02:29.100Z,8.77
2022-10-23T13:05:03.474Z,9.10
2022-10-23T13:07:36.085Z,9.73
2022-10-23T13:10:25.121Z,6.60
2022-10-23T13:13:00.630Z,12.40
2022-10-23T13:15:39.019Z,6.10
2022-10-23T13:18:09.284Z,12.67
2022-10-23T13:20:43.662Z,11.43
2022-10-23T13:23:19.644Z,43.83
2022-10-23T13:25:56.138Z,32.80
2022-10-23T13:28:27.991Z,19.37
2022-10-23T13:31:03.745Z,32.63
2022-10-23T13:33:38.772Z,26.20
2022-10-23T13:36:23.961Z,15.17
2022-10-23T13:39:04.821Z,16.37
2022-10-23T13:41:38.898Z,13.50
2022-10-23T13:44:08.126Z,63.00
2022-10-23T13:46:36.883Z,78.47
2022-10-23T13:49:05.768Z,39.40
2022-10-23T13:51:42.660Z,22.20
2022-10-23T13:54:16.981Z,24.93
2022-10-23T13:56:45.937Z,32.87
2022-10-23T13:59:15.070Z,25.50
2022-10-23T14:01:45.483Z,25.17
2022-10-23T14:04:15.568Z,18.77
2022-10-23T14:06:46.194Z,19.30
2022-10-23T14:09:17.808Z,15.23
2022-10-23T14:11:49.200Z,15.67
2022-10-23T14:14:18.279Z,23.20
2022-10-23T14:16:47.043Z,19.03
2022-10-23T14:19:15.770Z,21.70
2022-10-23T14:21:46.252Z,16.30
2022-10-23T14:24:15.609Z,20.53
2022-10-23T14:26:44.473Z,16.70
2022-10-23T14:29:21.198Z,16.97
2022-10-23T14:31:52.911Z,51.60
2022-10-23T14:34:21.925Z,67.17
2022-10-23T14:37:07.380Z,104.00
2022-10-23T14:39:37.579Z,54.30
2022-10-23T14:42:06.912Z,103.73
2022-10-23T14:44:36.011Z,48.70
2022-10-23T14:47:05.349Z,31.37
2022-10-23T14:49:35.770Z,47.97
2022-10-23T14:52:06.806Z,52.60
2022-10-23T14:54:36.648Z,42.73
2022-10-23T14:57:08.768Z,42.17
2022-10-23T14:59:37.927Z,34.07
2022-10-23T15:02:12.041Z,40.43
2022-10-23T15:04:41.497Z,65.90
2022-10-23T15:07:20.949Z,59.30
2022-10-23T15:09:51.960Z,63.87
2022-10-23T15:12:20.978Z,83.07
2022-10-23T15:14:49.868Z,105.30
2022-10-23T15:17:18.580Z,71.87
2022-10-23T15:19:47.819Z,63.33
2022-10-23T15:22:20.769Z,62.00
2022-10-23T15:24:52.313Z,65.23
2022-10-23T15:27:21.732Z,62.20
2022-10-23T15:29:50.528Z,105.60
2022-10-23T15:32:19.447Z,74.87
2022-10-23T15:34:49.866Z,76.30
2022-10-23T15:37:20.245Z,72.43
2022-10-23T15:39:49.165Z,97.73
2022-10-23T15:42:19.045Z,115.60
2022-10-23T15:44:47.930Z,81.77
2022-10-23T15:47:16.986Z,86.83
2022-10-23T15:49:45.731Z,76.73
2022-10-23T15:52:14.569Z,69.40
2022-10-23T15:54:44.959Z,87.10
2022-10-23T15:57:13.900Z,93.90
2022-10-23T15:59:42.751Z,85.70
2022-10-23T16:02:12.920Z,84.57
2022-10-23T16:04:42.152Z,84.80
2022-10-23T16:07:11.243Z,71.17
2022-10-23T16:09:40.166Z,83.27
2022-10-23T16:12:10.931Z,85.37
2022-10-23T16:14:41.379Z,71.80
2022-10-23T16:17:10.863Z,73.00
2022-10-23T16:19:40.064Z,76.30
2022-10-23T16:22:09.084Z,95.97
2022-10-23T16:24:37.896Z,101.60
2022-10-23T16:27:06.771Z,83.87
2022-10-23T16:29:37.260Z,149.73
2022-10-23T16:32:06.666Z,98.03
2022-10-23T16:34:35.512Z,97.47
2022-10-23T16:37:04.479Z,95.53
2022-10-23T16:39:53.608Z,106.10
2022-10-23T16:42:28.322Z,107.03
2022-10-23T16:45:21.597Z,113.47
2022-10-23T16:47:50.536Z,94.07
2022-10-23T16:50:19.678Z,69.90
2022-10-23T16:52:50.925Z,74.43
2022-10-23T16:55:22.298Z,68.20
2022-10-23T16:57:51.138Z,59.83
2022-10-23T17:00:23.392Z,67.97
2022-10-23T17:02:52.733Z,71.17
2022-10-23T17:05:21.738Z,74.43
2022-10-23T17:07:52.292Z,81.30
2022-10-23T17:10:21.397Z,67.60
2022-10-23T17:12:51.014Z,99.47
2022-10-23T17:15:21.471Z,77.57
2022-10-23T17:17:51.252Z,65.33
2022-10-23T17:20:20.373Z,62.20
2022-10-23T17:22:49.161Z,59.60
2022-10-23T17:25:18.062Z,54.57
2022-10-23T17:27:48.046Z,71.37
2022-10-23T17:30:16.900Z,61.77
2022-10-23T17:32:47.374Z,53.97
2022-10-23T17:35:16.567Z,48.43
2022-10-23T17:37:45.357Z,55.23
2022-10-23T17:40:14.728Z,73.27
2022-10-23T17:42:43.878Z,45.43
2022-10-23T17:45:13.022Z,47.20
2022-10-23T17:47:43.223Z,38.80
2022-10-23T17:50:14.068Z,40.77
2022-10-23T17:52:43.926Z,48.13
2022-10-23T17:55:13.287Z,34.90
2022-10-23T17:57:42.471Z,49.10
2022-10-23T18:00:12.677Z,45.67
2022-10-23T18:02:41.740Z,50.47
2022-10-23T18:05:11.371Z,43.60
2022-10-23T18:07:42.134Z,44.60
2022-10-23T18:10:12.591Z,39.43
2022-10-23T18:12:41.948Z,40.70
2022-10-23T18:15:11.745Z,30.40
2022-10-23T18:17:40.947Z,37.97
2022-10-23T18:20:12.097Z,36.10
2022-10-23T18:22:42.633Z,42.63
2022-10-23T18:25:12.120Z,33.80
2022-10-23T18:27:41.600Z,36.03
2022-10-23T18:30:11.958Z,33.37
2022-10-23T18:32:41.067Z,33.70
2022-10-23T18:35:10.816Z,35.30
2022-10-23T18:37:41.517Z,31.57
2022-10-23T18:40:13.852Z,27.33
2022-10-23T18:42:43.334Z,27.40
2022-10-23T18:45:14.011Z,28.40
2022-10-23T18:47:43.389Z,28.03
2022-10-23T18:50:12.892Z,25.83
2022-10-23T18:52:41.709Z,31.80
2022-10-23T18:55:13.119Z,30.30
2022-10-23T18:57:42.652Z,30.93
2022-10-23T19:00:13.886Z,28.07
2022-10-23T19:02:42.932Z,22.33
2022-10-23T19:05:11.758Z,25.97
2022-10-23T19:07:45.526Z,21.37
2022-10-23T19:10:19.541Z,26.67
2022-10-23T19:13:07.742Z,28.20
2022-10-23T19:15:38.133Z,21.80
2022-10-23T19:18:08.579Z,17.67
2022-10-23T19:20:38.183Z,22.80
2022-10-23T19:23:08.822Z,21.40
2022-10-23T19:25:40.174Z,23.83
2022-10-23T19:28:09.134Z,22.87
2022-10-23T19:30:38.274Z,20.17
2022-10-23T19:33:07.115Z,19.70
2022-10-23T19:35:36.110Z,21.37
2022-10-23T19:38:05.004Z,19.03
2022-10-23T19:40:33.675Z,22.10
2022-10-23T19:43:03.903Z,25.03
2022-10-23T19:45:32.962Z,25.10
2022-10-23T19:48:01.863Z,24.23
2022-10-23T19:50:30.690Z,23.63
2022-10-23T19:53:18.173Z,26.73
2022-10-23T19:55:47.158Z,21.77
2022-10-23T19:58:18.992Z,35.50
2022-10-23T20:00:47.968Z,25.87
2022-10-23T20:03:16.676Z,32.50
2022-10-23T20:05:46.869Z,28.77
2022-10-23T20:08:15.770Z,25.83
2022-10-23T20:10:46.182Z,30.23
2022-10-23T20:13:19.873Z,32.97
2022-10-23T20:15:49.539Z,36.47
2022-10-23T20:18:18.595Z,19.23
2022-10-23T20:20:47.474Z,19.70
2022-10-23T20:23:16.372Z,21.23
2022-10-23T20:25:47.272Z,20.50
2022-10-23T20:28:17.801Z,22.33
2022-10-23T20:30:46.995Z,25.53
2022-10-23T20:33:15.897Z,25.80
2022-10-23T20:35:45.415Z,29.07
2022-10-23T20:38:18.260Z,25.03
2022-10-23T20:40:47.708Z,23.43
2022-10-23T20:43:18.437Z,22.53
2022-10-23T20:45:47.639Z,24.13
2022-10-23T20:48:16.729Z,35.53
2022-10-23T20:50:45.638Z,26.37
2022-10-23T20:53:14.601Z,24.60
2022-10-23T20:56:05.372Z,24.57
2022-10-23T20:58:35.800Z,23.70
2022-10-23T21:01:06.186Z,21.93
2022-10-23T21:03:35.399Z,25.97
2022-10-23T21:06:05.630Z,25.17
2022-10-23T21:08:34.722Z,26.57
2022-10-23T21:11:03.962Z,38.67
2022-10-23T21:13:34.613Z,41.53
2022-10-23T21:16:13.774Z,36.50
2022-10-23T21:18:46.863Z,32.67
2022-10-23T21:21:19.365Z,29.70
2022-10-23T21:23:49.411Z,36.67
2022-10-23T21:26:19.846Z,46.43
2022-10-23T21:28:56.411Z,41.50
2022-10-23T21:31:36.149Z,35.67
2022-10-23T21:34:05.936Z,34.43
2022-10-23T21:36:43.716Z,33.40
2022-10-23T21:39:42.717Z,27.47
2022-10-23T21:42:11.805Z,28.33
2022-10-23T21:44:42.192Z,29.73
2022-10-23T21:47:11.240Z,27.73
2022-10-23T21:49:40.206Z,26.83
2022-10-23T21:52:09.215Z,32.83
2022-10-23T21:54:38.109Z,28.53
2022-10-23T21:57:07.028Z,24.93
2022-10-23T21:59:36.348Z,18.87
2022-10-23T22:02:06.641Z,18.13
2022-10-23T22:04:35.824Z,18.63
2022-10-23T22:07:05.267Z,18.07
2022-10-23T22:09:35.400Z,18.10
2022-10-23T22:12:04.397Z,16.67
2022-10-23T22:14:33.654Z,15.83
2022-10-23T22:17:02.619Z,16.10
2022-10-23T22:19:33.083Z,15.47
2022-10-23T22:22:01.960Z,17.47
2022-10-23T22:24:30.774Z,19.67
2022-10-23T22:26:59.822Z,16.53
2022-10-23T22:29:30.633Z,33.40
2022-10-23T22:31:59.825Z,40.93
2022-10-23T22:37:20.641Z,38.73
2022-10-23T22:39:52.949Z,29.30
2022-10-23T22:42:22.159Z,27.23
2022-10-23T22:44:50.894Z,45.17
2022-10-23T22:47:19.724Z,49.90
2022-10-23T22:49:48.585Z,39.77
2022-10-23T22:52:17.363Z,39.40
2022-10-23T22:54:49.018Z,39.20
2022-10-23T22:57:18.016Z,39.87
2022-10-23T22:59:46.935Z,41.17
2022-10-23T23:02:15.903Z,37.23
2022-10-23T23:04:44.723Z,39.17
2022-10-23T23:07:14.288Z,44.10
2022-10-23T23:09:44.686Z,42.27
2022-10-23T23:12:16.167Z,28.53
2022-10-23T23:14:45.450Z,32.20
2022-10-23T23:17:14.241Z,32.67
2022-10-23T23:19:43.077Z,30.63
2022-10-23T23:22:11.961Z,29.47
2022-10-23T23:24:40.763Z,32.70
2022-10-23T23:27:09.635Z,29.10
2022-10-23T23:29:39.872Z,29.47
2022-10-23T23:32:08.783Z,32.23
2022-10-23T23:34:37.541Z,30.67
2022-10-23T23:37:06.535Z,28.73
2022-10-23T23:39:35.383Z,37.23
2022-10-23T23:42:04.250Z,35.50
2022-10-23T23:44:34.581Z,42.00
2022-10-23T23:47:04.954Z,45.17
2022-10-23T23:49:33.884Z,49.47
2022-10-23T23:52:02.756Z,50.80
2022-10-23T23:54:31.923Z,57.47
2022-10-23T23:57:05.871Z,53.37
2022-10-23T23:59:38.565Z,69.60
